Time;durP1;ratioP1;P1;durP2;ratioP2;P2;SDS_P1;SDS_P2;PMS_P1;PMS_P2;Temp;Humidity;BMP_temperature;BMP_pressure;BME280_temperature;BME280_humidity;BME280_pressure;Samples;Min_cycle;Max_cycle;Signal;HPM_P1;HPM_P2
2021/10/25 00:02:23;;;;;;;9.05;5.20;;;;;;;;;;5045592;28;20120;-82
2021/10/25 00:04:50;;;;;;;15.32;5.70;;;;;;;;;;5045898;28;20117;-82
2021/10/25 00:07:16;;;;;;;8.98;4.90;;;;;;;;;;5044760;28;20273;-82
2021/10/25 00:09:43;;;;;;;12.20;5.40;;;;;;;;;;5044146;28;20050;-82
2021/10/25 00:12:16;;;;;;;11.50;5.00;;;;;;;;;;5043487;28;20052;-82
2021/10/25 00:14:43;;;;;;;9.48;4.88;;;;;;;;;;5026087;28;20057;-82
2021/10/25 00:17:09;;;;;;;14.27;5.00;;;;;;;;;;5044963;28;20049;-82
2021/10/25 00:19:36;;;;;;;12.05;5.50;;;;;;;;;;5044044;28;20054;-82
2021/10/25 00:22:03;;;;;;;11.10;4.60;;;;;;;;;;5041916;28;20045;-82
2021/10/25 00:24:30;;;;;;;10.55;5.07;;;;;;;;;;5042620;28;20057;-82
2021/10/25 00:26:58;;;;;;;8.60;5.75;;;;;;;;;;5025621;28;20136;-82
2021/10/25 00:29:24;;;;;;;12.18;4.70;;;;;;;;;;5025729;28;20080;-82
2021/10/25 00:31:58;;;;;;;11.95;5.60;;;;;;;;;;5026697;28;20123;-82
2021/10/25 00:34:24;;;;;;;10.27;5.60;;;;;;;;;;5043060;28;20057;-82
2021/10/25 00:36:51;;;;;;;9.35;5.00;;;;;;;;;;5044079;28;20077;-82
2021/10/25 00:39:18;;;;;;;13.65;5.90;;;;;;;;;;5043167;28;20164;-83
2021/10/25 00:41:46;;;;;;;9.20;5.65;;;;;;;;;;5025453;28;20077;-82
2021/10/25 00:44:13;;;;;;;11.20;6.45;;;;;;;;;;5020965;28;20104;-82
2021/10/25 00:46:41;;;;;;;12.68;6.63;;;;;;;;;;5007524;28;20046;-82
2021/10/25 00:49:07;;;;;;;17.50;8.75;;;;;;;;;;5000640;28;20299;-82
2021/10/25 00:51:34;;;;;;;10.52;5.90;;;;;;;;;;4998815;28;20101;-82
2021/10/25 00:54:01;;;;;;;8.98;4.82;;;;;;;;;;5004235;28;20068;-82
2021/10/25 00:56:29;;;;;;;8.93;5.32;;;;;;;;;;5001437;28;20050;-82
2021/10/25 00:58:55;;;;;;;12.20;5.70;;;;;;;;;;5016962;28;20053;-83
2021/10/25 01:01:22;;;;;;;8.82;5.63;;;;;;;;;;4999637;28;20057;-82
2021/10/25 01:03:49;;;;;;;10.13;5.35;;;;;;;;;;5003292;28;20129;-83
2021/10/25 01:06:16;;;;;;;15.18;5.75;;;;;;;;;;4993603;28;20053;-82
2021/10/25 01:08:43;;;;;;;10.52;5.20;;;;;;;;;;5001699;28;20049;-83
2021/10/25 01:11:10;;;;;;;8.73;5.20;;;;;;;;;;5020288;28;20072;-83
2021/10/25 01:13:37;;;;;;;10.77;5.53;;;;;;;;;;5003608;28;20109;-82
2021/10/25 01:16:05;;;;;;;14.27;6.05;;;;;;;;;;5004118;28;20365;-82
2021/10/25 01:18:32;;;;;;;10.35;5.10;;;;;;;;;;5004706;28;20056;-82
2021/10/25 01:21:00;;;;;;;13.27;6.00;;;;;;;;;;5004003;28;20370;-82
2021/10/25 01:23:27;;;;;;;8.05;5.05;;;;;;;;;;5003943;28;20374;-83
2021/10/25 01:25:54;;;;;;;9.50;5.72;;;;;;;;;;5021112;28;20124;-82
2021/10/25 01:28:21;;;;;;;10.77;6.32;;;;;;;;;;5005648;28;20144;-83
2021/10/25 01:30:48;;;;;;;9.73;6.30;;;;;;;;;;5025540;28;20115;-82
2021/10/25 01:33:21;;;;;;;9.07;5.38;;;;;;;;;;5008090;28;20042;-83
2021/10/25 01:35:47;;;;;;;13.35;6.53;;;;;;;;;;4989509;28;20118;-83
2021/10/25 01:38:14;;;;;;;13.77;6.00;;;;;;;;;;5000893;28;20047;-82
2021/10/25 01:40:41;;;;;;;12.52;5.68;;;;;;;;;;4983626;28;20093;-83
2021/10/25 01:43:08;;;;;;;12.02;6.20;;;;;;;;;;5021512;28;20421;-82
2021/10/25 01:45:35;;;;;;;13.98;6.10;;;;;;;;;;5038988;28;20563;-82
2021/10/25 01:48:01;;;;;;;13.20;6.05;;;;;;;;;;5038731;28;20045;-83
2021/10/25 01:50:29;;;;;;;9.93;5.65;;;;;;;;;;5038599;28;20342;-83
2021/10/25 01:52:55;;;;;;;10.05;6.15;;;;;;;;;;5021925;28;20071;-83
2021/10/25 01:55:22;;;;;;;11.05;6.05;;;;;;;;;;5039615;28;20121;-82
2021/10/25 01:57:49;;;;;;;10.73;5.82;;;;;;;;;;5040449;28;20055;-83
2021/10/25 02:00:19;;;;;;;10.80;5.68;;;;;;;;;;5040147;28;20049;-82
2021/10/25 02:02:46;;;;;;;16.83;6.63;;;;;;;;;;5040771;28;20410;-82
2021/10/25 02:05:12;;;;;;;16.05;6.40;;;;;;;;;;5041521;28;20499;-82
2021/10/25 02:07:39;;;;;;;10.77;6.05;;;;;;;;;;5039631;28;20162;-82
2021/10/25 02:10:06;;;;;;;9.05;5.93;;;;;;;;;;5039174;28;20154;-83
2021/10/25 02:12:37;;;;;;;11.90;6.50;;;;;;;;;;5020646;28;20049;-82
2021/10/25 02:15:04;;;;;;;19.63;7.03;;;;;;;;;;5020210;28;20114;-82
2021/10/25 02:17:30;;;;;;;12.40;6.38;;;;;;;;;;5021768;28;20355;-82
2021/10/25 02:19:57;;;;;;;15.55;6.65;;;;;;;;;;5022595;28;20057;-83
2021/10/25 02:22:27;;;;;;;17.50;6.43;;;;;;;;;;5045329;28;20059;-83
2021/10/25 02:24:53;;;;;;;12.65;6.63;;;;;;;;;;5050400;28;20052;-83
2021/10/25 02:27:20;;;;;;;9.48;6.00;;;;;;;;;;5051579;28;20056;-83
2021/10/25 02:29:47;;;;;;;12.05;7.13;;;;;;;;;;5053020;28;20080;-83
2021/10/25 02:32:16;;;;;;;12.77;7.10;;;;;;;;;;5051905;28;20086;-83
2021/10/25 02:34:46;;;;;;;15.93;7.53;;;;;;;;;;5051944;28;20230;-82
2021/10/25 02:37:16;;;;;;;13.38;7.93;;;;;;;;;;5053502;28;20037;-83
2021/10/25 02:39:44;;;;;;;13.23;7.20;;;;;;;;;;5052637;28;20053;-83
2021/10/25 02:42:11;;;;;;;13.32;6.95;;;;;;;;;;5052117;28;20140;-82
2021/10/25 02:44:41;;;;;;;11.52;7.13;;;;;;;;;;5019145;28;20054;-82
2021/10/25 02:47:08;;;;;;;12.45;6.72;;;;;;;;;;5019654;28;20049;-82
2021/10/25 02:49:35;;;;;;;13.98;7.30;;;;;;;;;;5018934;28;20321;-82
2021/10/25 02:52:04;;;;;;;13.40;6.93;;;;;;;;;;5018214;28;20049;-82
2021/10/25 02:54:31;;;;;;;16.77;7.90;;;;;;;;;;5036665;28;20429;-82
2021/10/25 02:57:01;;;;;;;13.18;6.78;;;;;;;;;;5018054;28;20052;-82
2021/10/25 02:59:28;;;;;;;11.35;6.80;;;;;;;;;;5016864;28;20045;-82
2021/10/25 03:01:54;;;;;;;15.45;7.95;;;;;;;;;;5015583;28;20099;-82
2021/10/25 03:04:24;;;;;;;14.18;8.18;;;;;;;;;;5019038;28;20092;-82
2021/10/25 03:06:51;;;;;;;14.98;7.80;;;;;;;;;;5002184;28;20050;-81
2021/10/25 03:09:18;;;;;;;13.85;7.35;;;;;;;;;;5001541;28;20050;-81
2021/10/25 03:11:45;;;;;;;17.83;8.10;;;;;;;;;;4999726;28;20053;-80
2021/10/25 03:14:12;;;;;;;15.90;8.05;;;;;;;;;;5001541;28;20050;-80
2021/10/25 03:16:41;;;;;;;17.40;7.65;;;;;;;;;;5019004;28;20097;-81
2021/10/25 03:19:08;;;;;;;11.55;6.82;;;;;;;;;;5002469;28;20061;-81
2021/10/25 03:21:35;;;;;;;15.43;7.45;;;;;;;;;;5017556;28;20062;-81
2021/10/25 03:24:02;;;;;;;13.77;7.18;;;;;;;;;;5000309;28;20050;-81
2021/10/25 03:26:29;;;;;;;16.92;8.15;;;;;;;;;;5016302;28;20064;-81
2021/10/25 03:28:56;;;;;;;13.90;7.97;;;;;;;;;;5017590;28;20116;-81
2021/10/25 03:31:23;;;;;;;14.80;9.40;;;;;;;;;;5001929;28;20054;-81
2021/10/25 03:33:51;;;;;;;18.65;9.02;;;;;;;;;;5033443;28;20053;-81
2021/10/25 03:36:21;;;;;;;13.93;8.93;;;;;;;;;;5027368;28;20077;-81
2021/10/25 03:38:48;;;;;;;16.20;8.52;;;;;;;;;;5031417;28;20045;-82
2021/10/25 03:41:28;;;;;;;14.75;8.32;;;;;;;;;;5031724;28;20057;-81
2021/10/25 03:44:00;;;;;;;16.80;8.52;;;;;;;;;;5040864;28;20055;-81
2021/10/25 03:46:40;;;;;;;12.80;8.05;;;;;;;;;;5039138;28;20183;-81
2021/10/25 03:51:52;;;;;;;18.60;7.97;;;;;;;;;;5037702;28;20461;-81
2021/10/25 03:54:28;;;;;;;14.02;8.63;;;;;;;;;;5034475;28;20146;-81
2021/10/25 03:59:56;;;;;;;16.60;8.57;;;;;;;;;;5036447;28;20194;-81
2021/10/25 04:27:41;;;;;;;20.88;9.05;;;;;;;;;;5052835;28;20050;-81
2021/10/25 04:30:16;;;;;;;14.50;8.20;;;;;;;;;;5036157;28;20284;-83
2021/10/25 04:32:42;;;;;;;16.27;9.60;;;;;;;;;;5024628;28;20053;-80
2021/10/25 04:35:09;;;;;;;15.00;9.70;;;;;;;;;;5015469;28;20061;-81
2021/10/25 04:37:36;;;;;;;20.20;9.45;;;;;;;;;;5015380;28;20054;-81
2021/10/25 04:40:04;;;;;;;13.65;9.23;;;;;;;;;;5017171;28;20064;-81
2021/10/25 04:42:32;;;;;;;21.52;8.95;;;;;;;;;;5018273;28;20372;-82
2021/10/25 04:44:59;;;;;;;16.55;8.82;;;;;;;;;;5035555;28;20112;-81
2021/10/25 04:47:26;;;;;;;12.88;8.93;;;;;;;;;;5016273;28;20164;-81
2021/10/25 04:49:53;;;;;;;25.65;10.52;;;;;;;;;;5049858;28;20097;-81
2021/10/25 04:52:20;;;;;;;22.85;10.15;;;;;;;;;;5032682;28;20205;-81
2021/10/25 04:54:47;;;;;;;18.20;9.93;;;;;;;;;;5014745;28;20049;-82
2021/10/25 04:57:13;;;;;;;17.48;9.98;;;;;;;;;;5015094;28;20053;-81
2021/10/25 04:59:43;;;;;;;16.00;9.27;;;;;;;;;;5031133;28;20046;-81
2021/10/25 05:02:10;;;;;;;17.95;9.13;;;;;;;;;;5030928;28;20041;-81
2021/10/25 05:04:40;;;;;;;14.27;8.68;;;;;;;;;;5031117;28;20053;-81
2021/10/25 05:07:07;;;;;;;15.45;8.80;;;;;;;;;;5014557;28;20050;-81
2021/10/25 05:09:33;;;;;;;16.20;9.40;;;;;;;;;;5015173;28;20157;-81
2021/10/25 05:12:02;;;;;;;19.63;9.35;;;;;;;;;;5030634;28;20049;-82
2021/10/25 05:14:29;;;;;;;16.50;9.73;;;;;;;;;;5014485;28;20060;-81
2021/10/25 05:17:05;;;;;;;19.65;10.10;;;;;;;;;;5021189;28;20084;-82
2021/10/25 05:19:32;;;;;;;15.45;10.20;;;;;;;;;;5030566;28;20072;-82
2021/10/25 05:21:59;;;;;;;20.85;11.18;;;;;;;;;;5030301;28;20050;-82
2021/10/25 05:24:26;;;;;;;17.30;11.18;;;;;;;;;;5030481;28;20041;-82
2021/10/25 05:26:53;;;;;;;21.20;11.00;;;;;;;;;;5013479;28;20161;-83
2021/10/25 05:29:19;;;;;;;16.95;9.93;;;;;;;;;;5013765;28;20080;-82
2021/10/25 05:31:47;;;;;;;20.17;10.80;;;;;;;;;;5013119;28;20049;-83
2021/10/25 05:34:13;;;;;;;20.58;11.27;;;;;;;;;;5048177;28;20049;-82
2021/10/25 05:36:43;;;;;;;19.60;12.13;;;;;;;;;;5032969;28;20074;-82
2021/10/25 05:39:10;;;;;;;25.92;10.50;;;;;;;;;;5031826;28;20060;-83
2021/10/25 05:41:38;;;;;;;17.10;10.48;;;;;;;;;;5032317;28;20060;-82
2021/10/25 05:44:05;;;;;;;20.27;11.80;;;;;;;;;;5036587;28;20057;-81
2021/10/25 05:46:32;;;;;;;18.55;11.18;;;;;;;;;;5048924;28;20122;-81
2021/10/25 05:49:04;;;;;;;21.92;11.20;;;;;;;;;;5049845;28;20545;-81
2021/10/25 05:51:31;;;;;;;22.85;10.88;;;;;;;;;;5030531;28;20052;-82
2021/10/25 05:54:02;;;;;;;21.25;12.05;;;;;;;;;;5011546;28;20117;-81
2021/10/25 05:56:29;;;;;;;24.02;13.20;;;;;;;;;;5028571;28;20122;-81
2021/10/25 05:58:56;;;;;;;18.02;12.68;;;;;;;;;;5028281;28;20107;-82
2021/10/25 06:01:29;;;;;;;23.42;11.48;;;;;;;;;;5026759;28;20046;-81
2021/10/25 06:04:05;;;;;;;20.10;11.00;;;;;;;;;;5027725;28;20046;-81
2021/10/25 06:06:33;;;;;;;18.33;11.77;;;;;;;;;;5024624;28;20059;-82
2021/10/25 06:09:03;;;;;;;23.70;12.02;;;;;;;;;;5030675;28;20108;-82
2021/10/25 06:11:32;;;;;;;20.58;11.85;;;;;;;;;;5028922;28;20045;-81
2021/10/25 06:14:04;;;;;;;19.33;12.05;;;;;;;;;;5035721;28;20061;-82
2021/10/25 06:16:38;;;;;;;26.42;12.68;;;;;;;;;;5016589;28;20069;-85
2021/10/25 06:19:06;;;;;;;18.45;12.48;;;;;;;;;;5030866;28;20649;-82
2021/10/25 06:21:38;;;;;;;21.90;13.35;;;;;;;;;;5027999;28;20132;-83
2021/10/25 06:24:05;;;;;;;19.38;12.32;;;;;;;;;;5009624;28;20377;-82
2021/10/25 06:26:32;;;;;;;25.10;13.55;;;;;;;;;;5018809;28;20477;-81
2021/10/25 06:28:59;;;;;;;22.27;13.80;;;;;;;;;;5011217;28;20084;-81
2021/10/25 06:31:27;;;;;;;22.30;12.98;;;;;;;;;;5008871;28;20385;-81
2021/10/25 06:33:57;;;;;;;23.27;14.05;;;;;;;;;;4999964;28;20049;-81
2021/10/25 06:36:24;;;;;;;27.45;14.50;;;;;;;;;;5029817;28;20439;-81
2021/10/25 06:38:55;;;;;;;24.30;15.50;;;;;;;;;;5016308;28;20346;-82
2021/10/25 06:41:23;;;;;;;20.52;12.48;;;;;;;;;;5015859;28;20421;-82
2021/10/25 06:43:50;;;;;;;22.02;13.27;;;;;;;;;;5015575;28;20397;-82
2021/10/25 06:46:18;;;;;;;21.70;12.98;;;;;;;;;;5039330;28;20116;-82
2021/10/25 06:48:45;;;;;;;22.27;11.80;;;;;;;;;;5036168;28;20406;-82
2021/10/25 06:51:12;;;;;;;23.20;11.82;;;;;;;;;;5051878;28;20080;-82
2021/10/25 06:53:40;;;;;;;18.48;12.98;;;;;;;;;;5053861;28;20084;-82
2021/10/25 06:56:08;;;;;;;21.00;12.38;;;;;;;;;;5033821;28;20048;-81
2021/10/25 06:58:38;;;;;;;24.45;11.63;;;;;;;;;;5047270;28;20522;-82
2021/10/25 07:01:08;;;;;;;18.50;12.82;;;;;;;;;;5034217;28;20077;-82
2021/10/25 07:03:36;;;;;;;21.77;10.85;;;;;;;;;;5034672;28;20041;-82
2021/10/25 07:06:06;;;;;;;18.80;10.82;;;;;;;;;;5033670;28;20049;-82
2021/10/25 07:08:33;;;;;;;14.65;10.02;;;;;;;;;;5031542;28;20046;-81
2021/10/25 07:11:09;;;;;;;13.15;9.15;;;;;;;;;;5032054;28;20241;-82
2021/10/25 07:13:45;;;;;;;15.93;9.52;;;;;;;;;;5034177;28;20185;-82
2021/10/25 07:16:23;;;;;;;15.90;7.28;;;;;;;;;;5037139;28;20042;-81
2021/10/25 08:06:44;;;;;;;15.38;7.20;;;;;;;;;;5036801;28;20049;-82
2021/10/25 08:11:54;;;;;;;13.57;6.18;;;;;;;;;;5039678;28;20304;-81
2021/10/25 08:14:32;;;;;;;18.40;7.00;;;;;;;;;;5046472;28;20067;-81
2021/10/25 08:16:59;;;;;;;14.18;6.78;;;;;;;;;;5029577;28;20076;-80
2021/10/25 08:19:29;;;;;;;14.48;7.13;;;;;;;;;;5030232;28;20087;-81
2021/10/25 08:21:58;;;;;;;12.30;7.35;;;;;;;;;;5031511;28;20347;-80
2021/10/25 08:24:26;;;;;;;16.17;7.32;;;;;;;;;;5032015;28;20041;-83
2021/10/25 08:26:54;;;;;;;12.00;7.55;;;;;;;;;;5031762;28;20063;-83
2021/10/25 08:29:22;;;;;;;13.52;7.82;;;;;;;;;;5013054;28;20104;-84
2021/10/25 08:32:10;;;;;;;11.82;7.32;;;;;;;;;;5032185;28;20060;-83
2021/10/25 08:35:02;;;;;;;21.17;8.50;;;;;;;;;;5026443;28;20100;-83
2021/10/25 08:40:24;;;;;;;18.10;9.13;;;;;;;;;;5030161;28;20559;-84
2021/10/25 08:42:52;;;;;;;14.20;8.02;;;;;;;;;;5031289;28;20092;-82
2021/10/25 08:45:31;;;;;;;25.80;8.02;;;;;;;;;;4994945;28;20104;-83
2021/10/25 08:48:08;;;;;;;11.52;7.57;;;;;;;;;;4993854;28;20053;-82
2021/10/25 08:50:35;;;;;;;15.57;7.05;;;;;;;;;;5014425;28;20108;-82
2021/10/25 08:53:04;;;;;;;16.67;8.10;;;;;;;;;;5011506;28;20199;-82
2021/10/25 08:55:37;;;;;;;10.02;6.57;;;;;;;;;;5014014;28;20045;-83
2021/10/25 08:58:07;;;;;;;18.75;7.15;;;;;;;;;;5014203;28;20056;-82
2021/10/25 09:00:37;;;;;;;15.60;6.63;;;;;;;;;;5030944;28;20182;-83
2021/10/25 09:03:04;;;;;;;13.32;6.75;;;;;;;;;;5031493;28;20068;-81
2021/10/25 09:05:31;;;;;;;13.55;6.22;;;;;;;;;;5031373;28;20073;-82
2021/10/25 09:08:03;;;;;;;18.92;7.85;;;;;;;;;;5034900;28;20056;-84
2021/10/25 09:10:36;;;;;;;18.17;8.85;;;;;;;;;;5029219;28;20284;-81
2021/10/25 09:13:09;;;;;;;17.95;7.97;;;;;;;;;;5015401;28;20053;-82
2021/10/25 09:15:40;;;;;;;19.30;9.40;;;;;;;;;;5004055;28;20210;-83
2021/10/25 09:18:09;;;;;;;18.38;8.25;;;;;;;;;;4995183;28;20093;-83
2021/10/25 09:21:01;;;;;;;11.65;7.30;;;;;;;;;;4999444;28;20045;-82
2021/10/25 09:23:34;;;;;;;12.10;7.90;;;;;;;;;;4988464;28;20046;-82
2021/10/25 09:26:02;;;;;;;15.70;7.25;;;;;;;;;;5013884;28;20186;-82
2021/10/25 09:28:33;;;;;;;10.77;7.20;;;;;;;;;;5011890;28;20050;-83
2021/10/25 09:31:12;;;;;;;15.48;7.07;;;;;;;;;;5021123;28;20081;-83
2021/10/25 09:33:41;;;;;;;12.30;6.68;;;;;;;;;;5023189;28;20124;-83
2021/10/25 09:36:11;;;;;;;12.07;6.90;;;;;;;;;;5041594;28;20050;-82
2021/10/25 09:49:15;;;;;;;10.52;7.35;;;;;;;;;;5032811;28;20041;-82
2021/10/25 09:51:55;;;;;;;15.50;7.32;;;;;;;;;;5019064;28;20053;-82
2021/10/25 09:54:23;;;;;;;12.23;7.07;;;;;;;;;;5038174;28;20045;-81
2021/10/25 09:57:14;;;;;;;10.75;7.05;;;;;;;;;;5046433;28;20045;-81
2021/10/25 09:59:52;;;;;;;16.95;6.80;;;;;;;;;;5013756;28;20120;-82
2021/10/25 10:02:23;;;;;;;12.38;7.20;;;;;;;;;;5012240;28;20429;-82
2021/10/25 10:05:04;;;;;;;13.20;7.55;;;;;;;;;;5014543;28;20083;-81
2021/10/25 10:07:31;;;;;;;13.57;6.78;;;;;;;;;;5033251;28;20057;-82
2021/10/25 10:09:58;;;;;;;13.98;7.20;;;;;;;;;;5020942;28;20049;-81
2021/10/25 10:12:25;;;;;;;15.55;7.30;;;;;;;;;;5025574;28;20117;-81
2021/10/25 10:14:55;;;;;;;15.60;7.75;;;;;;;;;;5007389;28;20220;-80
2021/10/25 10:17:31;;;;;;;15.52;7.00;;;;;;;;;;5014204;28;20129;-80
2021/10/25 10:20:00;;;;;;;15.82;7.15;;;;;;;;;;5029152;28;20052;-80
2021/10/25 10:22:31;;;;;;;13.27;7.00;;;;;;;;;;5044214;28;20072;-81
2021/10/25 10:24:58;;;;;;;14.73;7.55;;;;;;;;;;5046668;28;20053;-81
2021/10/25 10:27:25;;;;;;;11.65;7.53;;;;;;;;;;5015004;28;20246;-81
2021/10/25 10:29:58;;;;;;;14.93;7.05;;;;;;;;;;5011058;28;20069;-80
2021/10/25 10:32:31;;;;;;;14.48;7.60;;;;;;;;;;5012955;28;20112;-80
2021/10/25 10:35:02;;;;;;;15.27;7.40;;;;;;;;;;5011590;28;20053;-80
2021/10/25 10:37:32;;;;;;;16.30;8.25;;;;;;;;;;5013036;28;20241;-81
2021/10/25 10:40:14;;;;;;;13.93;7.60;;;;;;;;;;5012688;28;20290;-81
2021/10/25 10:42:50;;;;;;;15.88;7.43;;;;;;;;;;5012794;28;20060;-81
2021/10/25 10:45:22;;;;;;;;;;;;;;;;;;5029531;28;20045;-82
2021/10/25 10:48:00;;;;;;;12.25;7.10;;;;;;;;;;5016651;28;19929;-82
2021/10/25 10:50:36;;;;;;;18.80;7.63;;;;;;;;;;4997006;28;20250;-81
2021/10/25 10:53:10;;;;;;;13.95;7.63;;;;;;;;;;5007537;28;20061;-80
2021/10/25 10:55:42;;;;;;;16.60;8.50;;;;;;;;;;4991874;28;20074;-81
2021/10/25 10:58:23;;;;;;;15.60;7.95;;;;;;;;;;5004988;28;20083;-82
2021/10/25 11:00:59;;;;;;;14.68;8.15;;;;;;;;;;5028891;28;20136;-81
2021/10/25 11:03:26;;;;;;;;;;;;;;;;;;4991790;28;20050;-81
2021/10/25 11:05:55;;;;;;;15.20;7.78;;;;;;;;;;5007641;28;19944;-81
2021/10/25 11:08:24;;;;;;;12.07;7.55;;;;;;;;;;5002384;28;20385;-82
2021/10/25 11:11:00;;;;;;;14.48;7.53;;;;;;;;;;5025118;28;20078;-81
2021/10/25 11:13:52;;;;;;;17.20;6.88;;;;;;;;;;5009997;28;20080;-81
2021/10/25 11:16:38;;;;;;;14.45;6.85;;;;;;;;;;5042130;28;20045;-81
2021/10/25 11:19:06;;;;;;;14.63;7.55;;;;;;;;;;5040658;28;20045;-81
2021/10/25 11:21:35;;;;;;;8.88;6.47;;;;;;;;;;5027846;28;20046;-81
2021/10/25 11:24:05;;;;;;;11.90;6.32;;;;;;;;;;5011456;28;20053;-81
2021/10/25 11:26:36;;;;;;;19.48;7.90;;;;;;;;;;4995732;28;20472;-82
2021/10/25 11:29:06;;;;;;;14.85;6.95;;;;;;;;;;5010334;28;20060;-82
2021/10/25 11:31:43;;;;;;;14.38;6.75;;;;;;;;;;5011844;28;20073;-82
2021/10/25 11:34:15;;;;;;;19.05;6.57;;;;;;;;;;5018405;28;20049;-82
2021/10/25 11:36:52;;;;;;;11.20;6.35;;;;;;;;;;5013081;28;20041;-81
2021/10/25 11:39:25;;;;;;;13.32;6.43;;;;;;;;;;5010210;28;20314;-82
2021/10/25 11:41:52;;;;;;;13.00;6.70;;;;;;;;;;5013371;28;20562;-81
2021/10/25 11:44:19;;;;;;;12.10;6.22;;;;;;;;;;5014375;28;20068;-81
2021/10/25 11:46:46;;;;;;;16.23;7.38;;;;;;;;;;5015380;28;20167;-80
2021/10/25 11:49:22;;;;;;;11.85;6.10;;;;;;;;;;5033733;28;20444;-81
2021/10/25 11:52:03;;;;;;;14.68;6.35;;;;;;;;;;5023445;28;20033;-82
2021/10/25 11:54:32;;;;;;;13.73;6.10;;;;;;;;;;5035376;28;20065;-82
2021/10/25 11:57:00;;;;;;;12.40;6.78;;;;;;;;;;5030502;28;20346;-80
2021/10/25 11:59:30;;;;;;;11.57;6.47;;;;;;;;;;5003597;28;20059;-82
2021/10/25 12:02:07;;;;;;;9.85;5.80;;;;;;;;;;5013021;28;20092;-82
2021/10/25 12:04:40;;;;;;;14.48;6.22;;;;;;;;;;5030261;28;20056;-82
2021/10/25 12:07:07;;;;;;;8.95;6.03;;;;;;;;;;5013686;28;20057;-81
2021/10/25 12:09:34;;;;;;;9.23;5.70;;;;;;;;;;5008772;28;20104;-81
2021/10/25 12:12:23;;;;;;;13.55;5.82;;;;;;;;;;5028106;28;20053;-81
2021/10/25 12:14:58;;;;;;;14.13;6.55;;;;;;;;;;5019849;28;20530;-81
2021/10/25 12:17:27;;;;;;;10.85;5.65;;;;;;;;;;5028753;28;20409;-81
2021/10/25 12:19:54;;;;;;;10.40;5.32;;;;;;;;;;5012849;28;20239;-81
2021/10/25 12:22:21;;;;;;;11.45;5.50;;;;;;;;;;5010111;28;20417;-82
2021/10/25 12:24:50;;;;;;;10.30;5.45;;;;;;;;;;5028934;28;20049;-80
2021/10/25 12:27:18;;;;;;;12.10;5.55;;;;;;;;;;5012001;28;20053;-81
2021/10/25 12:29:46;;;;;;;10.18;4.85;;;;;;;;;;5036482;28;20045;-81
2021/10/25 12:32:13;;;;;;;11.15;5.07;;;;;;;;;;5017101;28;20427;-81
2021/10/25 12:34:52;;;;;;;10.95;5.50;;;;;;;;;;5043374;28;20313;-81
2021/10/25 12:37:22;;;;;;;10.30;5.32;;;;;;;;;;5011956;28;20054;-81
2021/10/25 12:39:52;;;;;;;10.27;5.18;;;;;;;;;;5012452;28;20161;-81
2021/10/25 12:42:22;;;;;;;11.77;5.15;;;;;;;;;;5012105;28;20050;-81
2021/10/25 12:44:54;;;;;;;15.00;4.75;;;;;;;;;;5023831;28;20063;-82
2021/10/25 12:47:25;;;;;;;10.15;4.45;;;;;;;;;;5029815;28;20159;-82
2021/10/25 12:49:56;;;;;;;11.43;4.63;;;;;;;;;;5012765;28;20135;-82
2021/10/25 12:52:26;;;;;;;10.55;5.10;;;;;;;;;;5012876;28;20328;-81
2021/10/25 12:54:57;;;;;;;9.65;4.60;;;;;;;;;;5030494;28;20418;-81
2021/10/25 12:57:26;;;;;;;15.23;5.30;;;;;;;;;;5030033;28;20169;-81
2021/10/25 13:00:12;;;;;;;8.05;5.40;;;;;;;;;;5033037;28;20060;-81
2021/10/25 13:02:47;;;;;;;9.85;4.82;;;;;;;;;;5020427;28;20150;-82
2021/10/25 13:05:25;;;;;;;6.93;4.47;;;;;;;;;;5023499;28;20189;-82
2021/10/25 13:07:54;;;;;;;9.40;4.75;;;;;;;;;;5048363;28;20060;-81
2021/10/25 13:10:37;;;;;;;12.32;5.13;;;;;;;;;;5028126;28;20111;-82
2021/10/25 13:13:08;;;;;;;11.23;4.45;;;;;;;;;;5008162;28;20190;-82
2021/10/25 13:15:36;;;;;;;10.32;6.05;;;;;;;;;;5025441;28;20130;-82
2021/10/25 13:18:10;;;;;;;14.45;4.88;;;;;;;;;;5002966;28;20049;-81
2021/10/25 13:20:40;;;;;;;14.10;5.07;;;;;;;;;;5006546;28;20184;-82
2021/10/25 13:23:11;;;;;;;10.70;5.28;;;;;;;;;;5002686;28;20119;-81
2021/10/25 13:25:39;;;;;;;17.52;4.82;;;;;;;;;;5010143;28;20052;-81
2021/10/25 13:28:07;;;;;;;9.15;5.18;;;;;;;;;;5023792;28;20060;-83
2021/10/25 13:30:34;;;;;;;9.35;4.60;;;;;;;;;;5006306;28;20142;-81
2021/10/25 13:33:02;;;;;;;10.63;5.05;;;;;;;;;;5004582;28;20037;-82
2021/10/25 13:35:32;;;;;;;9.48;5.10;;;;;;;;;;5023512;28;20045;-83
2021/10/25 13:37:59;;;;;;;12.95;5.05;;;;;;;;;;5010225;28;20053;-83
2021/10/25 13:40:30;;;;;;;11.63;4.95;;;;;;;;;;5003470;28;20234;-83
2021/10/25 13:43:00;;;;;;;18.33;6.05;;;;;;;;;;5020016;28;20188;-83
2021/10/25 13:45:28;;;;;;;15.38;5.30;;;;;;;;;;5007084;28;20052;-81
2021/10/25 13:47:55;;;;;;;11.40;5.07;;;;;;;;;;5005974;28;20418;-82
2021/10/25 13:50:23;;;;;;;13.23;5.18;;;;;;;;;;5022515;28;20111;-82
2021/10/25 13:53:00;;;;;;;10.88;4.28;;;;;;;;;;5004291;28;20111;-82
2021/10/25 13:55:31;;;;;;;9.98;4.82;;;;;;;;;;5022972;28;20462;-82
2021/10/25 13:58:01;;;;;;;13.05;4.95;;;;;;;;;;5019273;28;20056;-82
2021/10/25 14:00:35;;;;;;;13.38;4.80;;;;;;;;;;5020905;28;20138;-82
2021/10/25 14:03:03;;;;;;;11.82;4.70;;;;;;;;;;5004571;28;20122;-82
2021/10/25 14:05:31;;;;;;;10.43;4.30;;;;;;;;;;5007083;28;20045;-82
2021/10/25 14:08:08;;;;;;;11.70;4.53;;;;;;;;;;5006153;28;20238;-82
2021/10/25 14:13:25;;;;;;;9.20;5.07;;;;;;;;;;5024127;28;20511;-82
2021/10/25 14:16:09;;;;;;;11.40;4.10;;;;;;;;;;5031522;28;20049;-82
2021/10/25 14:18:37;;;;;;;15.63;5.22;;;;;;;;;;5010380;28;20494;-80
2021/10/25 14:21:04;;;;;;;9.32;4.40;;;;;;;;;;5005464;28;20085;-83
2021/10/25 14:23:32;;;;;;;15.65;5.18;;;;;;;;;;5023057;28;20073;-83
2021/10/25 14:25:58;;;;;;;11.30;3.80;;;;;;;;;;5021411;28;20138;-83
2021/10/25 14:28:29;;;;;;;9.82;4.25;;;;;;;;;;5003522;28;20104;-83
2021/10/25 14:30:57;;;;;;;10.05;3.67;;;;;;;;;;5000196;28;20073;-82
2021/10/25 14:33:26;;;;;;;12.25;3.53;;;;;;;;;;5007097;28;20053;-82
2021/10/25 14:35:57;;;;;;;8.70;3.55;;;;;;;;;;5004490;28;20600;-82
2021/10/25 14:43:44;;;;;;;6.93;3.10;;;;;;;;;;5003088;28;20095;-82
2021/10/25 14:46:18;;;;;;;7.38;3.30;;;;;;;;;;5001586;28;20487;-82
2021/10/25 14:48:54;;;;;;;8.93;3.53;;;;;;;;;;5015104;28;20045;-82
2021/10/25 14:54:22;;;;;;;12.90;4.63;;;;;;;;;;5022772;28;20118;-83
2021/10/25 14:57:01;;;;;;;14.82;3.60;;;;;;;;;;5010288;28;20186;-83
2021/10/25 14:59:34;;;;;;;13.60;4.38;;;;;;;;;;5016250;28;20127;-85
2021/10/25 15:02:19;;;;;;;10.30;4.43;;;;;;;;;;5008545;28;20190;-81
2021/10/25 15:04:50;;;;;;;11.90;3.90;;;;;;;;;;5009496;28;20276;-82
2021/10/25 15:07:21;;;;;;;12.07;4.00;;;;;;;;;;5008875;28;20041;-83
2021/10/25 15:09:55;;;;;;;11.05;3.38;;;;;;;;;;5008316;28;20053;-81
2021/10/25 15:12:26;;;;;;;9.65;3.97;;;;;;;;;;5008192;28;20265;-82
2021/10/25 15:15:19;;;;;;;9.35;3.65;;;;;;;;;;5024503;28;20099;-82
2021/10/25 15:17:48;;;;;;;11.88;3.50;;;;;;;;;;5005656;28;20049;-82
2021/10/25 15:20:15;;;;;;;11.25;3.65;;;;;;;;;;5020117;28;20299;-82
2021/10/25 15:22:42;;;;;;;8.05;3.25;;;;;;;;;;5024616;28;20229;-82
2021/10/25 15:25:15;;;;;;;5.88;3.17;;;;;;;;;;5024700;28;20125;-83
2021/10/25 15:27:43;;;;;;;11.98;3.65;;;;;;;;;;5023167;28;20045;-83
2021/10/25 15:30:11;;;;;;;8.35;3.00;;;;;;;;;;5023337;28;20113;-83
2021/10/25 15:32:39;;;;;;;18.85;3.30;;;;;;;;;;5028673;28;20141;-83
2021/10/25 15:35:06;;;;;;;7.13;3.50;;;;;;;;;;5032167;28;20050;-83
2021/10/25 15:37:35;;;;;;;7.47;3.40;;;;;;;;;;5017089;28;20117;-81
2021/10/25 15:40:07;;;;;;;10.30;3.88;;;;;;;;;;5035502;28;20060;-81
2021/10/25 15:42:34;;;;;;;6.22;2.90;;;;;;;;;;5030432;28;20140;-82
2021/10/25 15:45:02;;;;;;;11.77;3.50;;;;;;;;;;5024746;28;20208;-82
2021/10/25 15:47:30;;;;;;;7.38;3.22;;;;;;;;;;5010374;28;20222;-81
2021/10/25 15:49:57;;;;;;;8.88;3.65;;;;;;;;;;5002878;28;20049;-83
2021/10/25 15:52:24;;;;;;;10.48;3.85;;;;;;;;;;4984075;28;20103;-83
2021/10/25 15:54:56;;;;;;;7.10;3.17;;;;;;;;;;4988090;28;20061;-82
2021/10/25 15:57:24;;;;;;;8.70;4.10;;;;;;;;;;4992736;28;20180;-82
2021/10/25 15:59:52;;;;;;;6.00;2.63;;;;;;;;;;5001981;28;20143;-81
2021/10/25 16:02:22;;;;;;;8.48;3.15;;;;;;;;;;5005027;28;20231;-82
2021/10/25 16:04:50;;;;;;;10.95;3.40;;;;;;;;;;4984535;28;20049;-82
2021/10/25 16:07:24;;;;;;;7.50;3.25;;;;;;;;;;4985488;28;20450;-82
2021/10/25 16:09:53;;;;;;;7.55;3.80;;;;;;;;;;4980177;28;20242;-82
2021/10/25 16:12:25;;;;;;;7.45;3.25;;;;;;;;;;4986357;28;20144;-83
2021/10/25 16:14:58;;;;;;;7.18;3.55;;;;;;;;;;4998426;28;20107;-82
2021/10/25 16:17:25;;;;;;;7.00;3.67;;;;;;;;;;4982033;28;20133;-82
2021/10/25 16:20:00;;;;;;;8.10;3.83;;;;;;;;;;4995765;28;20248;-82
2021/10/25 16:22:27;;;;;;;7.95;3.95;;;;;;;;;;4985029;28;20374;-82
2021/10/25 16:25:01;;;;;;;8.15;3.47;;;;;;;;;;4985240;28;20226;-82
2021/10/25 16:27:28;;;;;;;6.57;3.38;;;;;;;;;;4985879;28;20081;-83
2021/10/25 16:29:55;;;;;;;8.18;4.22;;;;;;;;;;4984696;28;20049;-84
2021/10/25 16:32:22;;;;;;;7.38;3.58;;;;;;;;;;4985921;28;20213;-82
2021/10/25 16:34:50;;;;;;;8.73;4.00;;;;;;;;;;5004498;28;20065;-81